createdAt,value
2017-03-26T00:00:11.972Z,0
2017-03-26T00:01:21.619Z,0
2017-03-26T00:02:31.583Z,0
2017-03-26T00:03:41.856Z,0
2017-03-26T00:04:51.507Z,0
2017-03-26T00:06:01.714Z,0
2017-03-26T00:07:11.983Z,0
2017-03-26T00:08:22.258Z,0
2017-03-26T00:09:32.141Z,0
2017-03-26T00:10:42.101Z,0
2017-03-26T00:11:52.315Z,0
2017-03-26T00:13:02.273Z,0
2017-03-26T00:14:12.547Z,0
2017-03-26T00:15:22.847Z,0
2017-03-26T00:16:32.818Z,0
2017-03-26T00:17:43.394Z,0
2017-03-26T00:18:53.038Z,0
2017-03-26T00:20:03.002Z,0
2017-03-26T00:21:13.276Z,0
2017-03-26T00:22:23.549Z,0
2017-03-26T00:23:34.084Z,0
2017-03-26T00:24:43.742Z,0
2017-03-26T00:25:53.694Z,0
2017-03-26T00:27:03.666Z,0
2017-03-26T00:28:13.328Z,0
2017-03-26T00:29:23.858Z,0
2017-03-26T00:30:33.834Z,0
2017-03-26T00:31:43.794Z,0
2017-03-26T00:32:53.443Z,0
2017-03-26T00:34:03.416Z,0
2017-03-26T00:35:13.630Z,0
2017-03-26T00:36:23.591Z,0
2017-03-26T00:37:33.856Z,0
2017-03-26T00:38:43.822Z,0
2017-03-26T00:39:53.797Z,0
2017-03-26T00:41:04.014Z,0
2017-03-26T00:42:13.657Z,0
2017-03-26T00:43:23.695Z,0
2017-03-26T00:44:33.666Z,0
2017-03-26T00:45:43.937Z,0
2017-03-26T00:46:54.196Z,0
2017-03-26T00:48:04.178Z,0
2017-03-26T00:49:14.460Z,0
2017-03-26T00:50:24.734Z,0
2017-03-26T00:51:35.005Z,0
2017-03-26T00:52:44.956Z,0
2017-03-26T00:53:54.613Z,0
2017-03-26T00:55:04.578Z,0
2017-03-26T00:56:14.855Z,0
2017-03-26T00:57:25.127Z,0
2017-03-26T00:58:35.663Z,0
2017-03-26T00:59:45.623Z,0
2017-03-26T01:00:55.578Z,0
2017-03-26T01:02:05.258Z,0
2017-03-26T01:03:15.527Z,0
2017-03-26T01:04:25.481Z,0
2017-03-26T01:05:35.438Z,0
2017-03-26T01:06:45.715Z,0
2017-03-26T01:07:55.998Z,0
2017-03-26T01:09:05.970Z,0
2017-03-26T01:10:15.565Z,0
2017-03-26T01:11:25.523Z,0
2017-03-26T01:12:35.503Z,0
2017-03-26T01:13:45.467Z,0
2017-03-26T01:14:55.793Z,0
2017-03-26T01:16:05.686Z,0
2017-03-26T01:17:15.957Z,0
2017-03-26T01:18:26.281Z,0
2017-03-26T01:19:36.559Z,0
2017-03-26T01:20:46.828Z,0
2017-03-26T01:21:57.042Z,0
2017-03-26T01:23:07.330Z,0
2017-03-26T01:24:17.300Z,0
2017-03-26T01:25:27.266Z,0
2017-03-26T01:26:37.239Z,0
2017-03-26T01:27:47.771Z,0
2017-03-26T01:28:58.064Z,0
2017-03-26T01:30:08.347Z,0
2017-03-26T01:31:18.305Z,0
2017-03-26T01:32:28.597Z,0
2017-03-26T01:33:38.499Z,0
2017-03-26T01:34:48.764Z,0
2017-03-26T01:35:58.723Z,0
2017-03-26T01:37:08.062Z,0
2017-03-26T01:38:18.323Z,0
2017-03-26T01:39:28.594Z,0
2017-03-26T01:40:38.879Z,0
2017-03-26T01:41:48.842Z,0
2017-03-26T01:42:59.316Z,0
2017-03-26T01:44:09.597Z,0
2017-03-26T01:45:20.113Z,0
2017-03-26T01:46:30.073Z,0
2017-03-26T01:47:40.042Z,0
2017-03-26T01:48:49.691Z,0
2017-03-26T01:49:59.960Z,0
2017-03-26T01:51:09.872Z,0
2017-03-26T01:52:20.155Z,0
2017-03-26T01:53:29.803Z,0
2017-03-26T01:54:39.768Z,0
2017-03-26T01:55:49.423Z,0
2017-03-26T01:57:00.154Z,0
2017-03-26T01:58:10.426Z,0
2017-03-26T01:59:20.704Z,0
2017-03-26T02:00:30.661Z,0
2017-03-26T02:01:40.932Z,0
2017-03-26T02:02:51.447Z,0
2017-03-26T02:04:01.418Z,0
2017-03-26T02:05:11.416Z,0
2017-03-26T02:06:21.678Z,0
2017-03-26T02:07:31.650Z,0
2017-03-26T02:08:42.229Z,0
2017-03-26T02:09:52.505Z,0
2017-03-26T02:11:02.782Z,0
2017-03-26T02:12:12.746Z,0
2017-03-26T02:13:22.408Z,0
2017-03-26T02:14:32.671Z,0
2017-03-26T02:15:42.953Z,0
2017-03-26T02:16:52.909Z,0
2017-03-26T02:18:02.868Z,0
2017-03-26T02:19:13.146Z,0
2017-03-26T02:20:23.353Z,0
2017-03-26T02:21:33.632Z,0
2017-03-26T02:22:43.596Z,0
2017-03-26T02:23:53.258Z,0
2017-03-26T02:25:02.906Z,0
2017-03-26T02:26:13.426Z,0
2017-03-26T02:27:23.394Z,0
2017-03-26T02:28:33.363Z,0
2017-03-26T02:29:43.633Z,0
2017-03-26T02:30:53.906Z,0
2017-03-26T02:32:04.178Z,0
2017-03-26T02:33:14.141Z,0
2017-03-26T02:34:24.406Z,0
2017-03-26T02:35:34.687Z,0
2017-03-26T02:36:44.654Z,0
2017-03-26T02:37:55.173Z,0
2017-03-26T02:39:04.828Z,0
2017-03-26T02:40:15.102Z,0
2017-03-26T02:41:25.058Z,0
2017-03-26T02:42:35.019Z,0
2017-03-26T02:43:44.924Z,0
2017-03-26T02:44:54.569Z,0
2017-03-26T02:46:04.534Z,0
2017-03-26T02:47:14.804Z,0
2017-03-26T02:48:24.460Z,0
2017-03-26T02:49:34.983Z,0
2017-03-26T02:50:45.252Z,0
2017-03-26T02:51:54.900Z,0
2017-03-26T02:53:05.171Z,0
2017-03-26T02:54:15.449Z,0
2017-03-26T02:55:26.024Z,0
2017-03-26T02:56:35.982Z,0
2017-03-26T02:57:45.938Z,0
2017-03-26T02:58:55.904Z,0
2017-03-26T03:00:06.176Z,0
2017-03-26T03:01:16.070Z,0
2017-03-26T03:02:26.360Z,0
2017-03-26T03:03:36.327Z,0
2017-03-26T03:04:46.291Z,0
2017-03-26T03:05:56.560Z,0
2017-03-26T03:07:06.512Z,0
2017-03-26T03:08:16.468Z,0
2017-03-26T03:09:26.434Z,0
2017-03-26T03:10:36.710Z,0
2017-03-26T03:11:46.675Z,0
2017-03-26T03:12:57.249Z,0
2017-03-26T03:14:07.524Z,0
2017-03-26T03:15:17.485Z,0
2017-03-26T03:16:27.435Z,0
2017-03-26T03:17:37.706Z,0
2017-03-26T03:18:48.231Z,0
2017-03-26T03:19:58.505Z,0
2017-03-26T03:21:08.149Z,0
2017-03-26T03:22:18.429Z,0
2017-03-26T03:23:28.421Z,0
2017-03-26T03:24:38.637Z,0
2017-03-26T03:25:48.899Z,0
2017-03-26T03:26:58.860Z,0
2017-03-26T03:28:09.136Z,0
2017-03-26T03:29:19.103Z,0
2017-03-26T03:30:29.316Z,0
2017-03-26T03:31:39.004Z,0
2017-03-26T03:32:48.960Z,0
2017-03-26T03:33:59.237Z,0
2017-03-26T03:35:09.506Z,0
2017-03-26T03:36:19.453Z,0
2017-03-26T03:37:29.414Z,0
2017-03-26T03:38:39.379Z,0
2017-03-26T03:39:49.656Z,0
2017-03-26T03:40:59.919Z,0
2017-03-26T03:42:10.138Z,0
2017-03-26T03:43:20.103Z,0
2017-03-26T03:44:30.064Z,0
2017-03-26T03:45:40.354Z,0
2017-03-26T03:46:50.626Z,0
2017-03-26T03:48:01.155Z,0
2017-03-26T03:49:11.439Z,0
2017-03-26T03:50:21.704Z,0
2017-03-26T03:51:31.663Z,0
2017-03-26T03:52:41.635Z,0
2017-03-26T03:53:52.167Z,0
2017-03-26T03:55:02.444Z,0
2017-03-26T03:56:12.136Z,0
2017-03-26T03:57:22.417Z,0
2017-03-26T03:58:32.690Z,0
2017-03-26T03:59:43.226Z,0
2017-03-26T04:00:53.179Z,0
2017-03-26T04:02:02.837Z,0
2017-03-26T04:03:13.118Z,0
2017-03-26T04:04:23.088Z,0
2017-03-26T04:05:33.669Z,0
2017-03-26T04:06:43.930Z,0
2017-03-26T04:07:54.204Z,0
2017-03-26T04:09:04.167Z,0
2017-03-26T04:10:14.445Z,0
2017-03-26T04:11:24.085Z,0
2017-03-26T04:12:34.354Z,0
2017-03-26T04:13:44.311Z,0
2017-03-26T04:14:53.657Z,0
2017-03-26T04:16:03.304Z,0
2017-03-26T04:17:13.514Z,0
2017-03-26T04:18:23.781Z,0
2017-03-26T04:19:33.746Z,0
2017-03-26T04:20:44.020Z,0
2017-03-26T04:21:54.292Z,0
2017-03-26T04:23:04.515Z,0
2017-03-26T04:24:14.786Z,0
2017-03-26T04:25:25.053Z,0
2017-03-26T04:26:35.325Z,0
2017-03-26T04:27:45.594Z,0
2017-03-26T04:28:56.271Z,0
2017-03-26T04:30:06.228Z,0
2017-03-26T04:31:16.193Z,0
2017-03-26T04:32:26.157Z,0
2017-03-26T04:33:36.431Z,0
2017-03-26T04:34:46.336Z,0
2017-03-26T04:35:56.292Z,0
2017-03-26T04:37:05.953Z,0
2017-03-26T04:38:15.605Z,0
2017-03-26T04:39:25.885Z,0
2017-03-26T04:40:36.410Z,4
2017-03-26T04:41:46.688Z,0
2017-03-26T04:42:56.958Z,0
2017-03-26T04:44:06.921Z,0
2017-03-26T04:45:16.953Z,0
2017-03-26T04:46:27.480Z,0
2017-03-26T04:47:37.760Z,0
2017-03-26T04:48:47.723Z,0
2017-03-26T04:49:57.994Z,0
2017-03-26T04:51:08.265Z,0
2017-03-26T04:52:18.789Z,0
2017-03-26T04:53:29.064Z,0
2017-03-26T04:54:39.021Z,4
2017-03-26T04:55:48.978Z,4
2017-03-26T04:56:58.932Z,4
2017-03-26T04:58:09.445Z,4
2017-03-26T04:59:19.102Z,4
2017-03-26T05:00:29.373Z,4
2017-03-26T05:01:39.634Z,8
2017-03-26T05:02:49.596Z,4
2017-03-26T05:03:59.815Z,8
2017-03-26T05:05:09.778Z,8
2017-03-26T05:06:19.808Z,8
2017-03-26T05:07:29.446Z,8
2017-03-26T05:08:39.394Z,12
2017-03-26T05:09:49.349Z,12
2017-03-26T05:10:58.999Z,12
2017-03-26T05:12:08.695Z,16
2017-03-26T05:13:18.653Z,16
2017-03-26T05:14:28.977Z,20
2017-03-26T05:15:39.237Z,24
2017-03-26T05:16:49.192Z,24
2017-03-26T05:17:59.158Z,24
2017-03-26T05:19:09.432Z,28
2017-03-26T05:20:19.707Z,32
2017-03-26T05:21:29.601Z,36
2017-03-26T05:22:39.565Z,32
2017-03-26T05:23:49.538Z,28
2017-03-26T05:24:58.880Z,28
2017-03-26T05:26:08.840Z,28
2017-03-26T05:27:19.361Z,28
2017-03-26T05:28:29.642Z,28
2017-03-26T05:29:39.608Z,32
2017-03-26T05:30:49.874Z,32
2017-03-26T05:32:00.141Z,36
2017-03-26T05:33:10.656Z,40
2017-03-26T05:34:20.621Z,40
2017-03-26T05:35:30.891Z,48
2017-03-26T05:36:41.169Z,48
2017-03-26T05:37:51.439Z,52
2017-03-26T05:39:01.965Z,56
2017-03-26T05:40:11.936Z,56
2017-03-26T05:41:21.920Z,60
2017-03-26T05:42:32.216Z,60
2017-03-26T05:43:42.177Z,60
2017-03-26T05:44:52.709Z,64
2017-03-26T05:46:02.972Z,68
2017-03-26T05:47:13.250Z,68
2017-03-26T05:48:23.519Z,68
2017-03-26T05:49:33.173Z,68
2017-03-26T05:50:43.742Z,68
2017-03-26T05:51:53.397Z,68
2017-03-26T05:53:03.679Z,68
2017-03-26T05:54:13.956Z,68
2017-03-26T05:55:23.911Z,72
2017-03-26T05:56:34.435Z,72
2017-03-26T05:57:44.704Z,76
2017-03-26T05:58:54.975Z,76
2017-03-26T06:00:05.250Z,76
2017-03-26T06:01:15.217Z,76
2017-03-26T06:02:25.743Z,76
2017-03-26T06:03:36.028Z,72
2017-03-26T06:04:45.696Z,76
2017-03-26T06:05:55.963Z,76
2017-03-26T06:07:05.922Z,76
2017-03-26T06:08:16.490Z,76
2017-03-26T06:09:26.456Z,80
2017-03-26T06:10:36.924Z,80
2017-03-26T06:11:46.568Z,80
2017-03-26T06:12:56.230Z,76
2017-03-26T06:14:06.754Z,76
2017-03-26T06:15:17.034Z,80
2017-03-26T06:16:27.301Z,80
2017-03-26T06:17:37.582Z,84
2017-03-26T06:18:47.243Z,84
2017-03-26T06:19:57.778Z,84
2017-03-26T06:21:07.733Z,84
2017-03-26T06:22:18.005Z,80
2017-03-26T06:23:27.668Z,68
2017-03-26T06:24:37.638Z,56
2017-03-26T06:25:48.157Z,64
2017-03-26T06:26:58.425Z,60
2017-03-26T06:28:08.409Z,88
2017-03-26T06:29:18.678Z,84
2017-03-26T06:30:28.645Z,84
2017-03-26T06:31:38.864Z,84
2017-03-26T06:32:49.131Z,80
2017-03-26T06:33:58.469Z,88
2017-03-26T06:35:08.439Z,84
2017-03-26T06:36:18.410Z,80
2017-03-26T06:37:28.611Z,80
2017-03-26T06:38:38.264Z,80
2017-03-26T06:39:48.238Z,76
2017-03-26T06:40:58.197Z,80
2017-03-26T06:42:08.145Z,84
2017-03-26T06:43:17.733Z,84
2017-03-26T06:44:27.715Z,88
2017-03-26T06:45:37.984Z,84
2017-03-26T06:46:48.254Z,88
2017-03-26T06:47:57.903Z,84
2017-03-26T06:49:08.111Z,84
2017-03-26T06:50:18.090Z,84
2017-03-26T06:51:27.749Z,84
2017-03-26T06:52:38.078Z,84
2017-03-26T06:53:48.093Z,80
2017-03-26T06:54:58.296Z,80
2017-03-26T06:56:08.259Z,84
2017-03-26T06:57:18.522Z,84
2017-03-26T06:58:28.171Z,80
2017-03-26T06:59:38.452Z,80
2017-03-26T07:00:48.970Z,80
2017-03-26T07:01:59.240Z,80
2017-03-26T07:03:09.223Z,84
2017-03-26T07:04:19.518Z,80
2017-03-26T07:05:29.476Z,76
2017-03-26T07:06:39.692Z,80
2017-03-26T07:07:49.963Z,80
2017-03-26T07:08:59.307Z,80
2017-03-26T07:10:09.589Z,72
2017-03-26T07:11:19.559Z,76
2017-03-26T07:12:29.822Z,76
2017-03-26T07:13:40.103Z,76
2017-03-26T07:14:50.373Z,76
2017-03-26T07:16:00.336Z,76
2017-03-26T07:17:10.293Z,76
2017-03-26T07:18:20.816Z,72
2017-03-26T07:19:31.155Z,72
2017-03-26T07:20:41.118Z,68
2017-03-26T07:21:51.077Z,68
2017-03-26T07:23:01.059Z,72
2017-03-26T07:24:11.274Z,76
2017-03-26T07:25:21.552Z,72
2017-03-26T07:26:31.823Z,72
2017-03-26T07:27:41.477Z,72
2017-03-26T07:28:51.445Z,72
2017-03-26T07:30:01.990Z,72
2017-03-26T07:31:12.270Z,72
2017-03-26T07:32:22.229Z,72
2017-03-26T07:33:32.502Z,68
2017-03-26T07:34:42.463Z,72
2017-03-26T07:35:52.727Z,72
2017-03-26T07:37:02.697Z,72
2017-03-26T07:38:12.976Z,72
2017-03-26T07:39:22.934Z,72
2017-03-26T07:40:33.215Z,72
2017-03-26T07:41:43.741Z,72
2017-03-26T07:42:53.717Z,72
2017-03-26T07:44:03.684Z,72
2017-03-26T07:45:13.641Z,72
2017-03-26T07:46:23.602Z,68
2017-03-26T07:47:34.175Z,68
2017-03-26T07:48:44.141Z,72
2017-03-26T07:49:54.432Z,68
2017-03-26T07:51:04.713Z,68
2017-03-26T07:52:14.663Z,68
2017-03-26T07:53:24.926Z,64
2017-03-26T07:54:34.897Z,64
2017-03-26T07:55:45.190Z,64
2017-03-26T07:56:55.160Z,68
2017-03-26T07:58:04.816Z,68
2017-03-26T07:59:15.344Z,68
2017-03-26T08:00:25.300Z,72
2017-03-26T08:01:35.262Z,72
2017-03-26T08:02:44.912Z,68
2017-03-26T08:03:55.214Z,68
2017-03-26T08:05:05.428Z,68
2017-03-26T08:06:15.765Z,72
2017-03-26T08:07:26.034Z,68
2017-03-26T08:08:36.310Z,72
2017-03-26T08:09:46.578Z,72
2017-03-26T08:10:56.799Z,72
2017-03-26T08:12:07.073Z,72
2017-03-26T08:13:17.349Z,76
2017-03-26T08:14:27.000Z,72
2017-03-26T08:15:37.269Z,76
2017-03-26T08:16:47.794Z,72
2017-03-26T08:17:57.443Z,72
2017-03-26T08:19:07.721Z,72
2017-03-26T08:20:17.688Z,72
2017-03-26T08:21:27.973Z,72
2017-03-26T08:22:38.499Z,72
2017-03-26T08:23:48.766Z,72
2017-03-26T08:24:58.423Z,72
2017-03-26T08:26:08.073Z,72
2017-03-26T08:27:18.043Z,72
2017-03-26T08:28:28.266Z,72
2017-03-26T08:29:38.556Z,72
2017-03-26T08:30:48.823Z,72
2017-03-26T08:31:58.798Z,76
2017-03-26T08:33:09.076Z,72
2017-03-26T08:34:19.344Z,72
2017-03-26T08:35:29.000Z,76
2017-03-26T08:36:38.973Z,72
2017-03-26T08:37:48.938Z,76
2017-03-26T08:38:58.587Z,76
2017-03-26T08:40:09.128Z,76
2017-03-26T08:41:19.465Z,76
2017-03-26T08:42:28.875Z,72
2017-03-26T08:43:38.835Z,48
2017-03-26T08:44:49.123Z,48
2017-03-26T08:45:59.380Z,56
2017-03-26T08:47:09.361Z,72
2017-03-26T08:48:19.340Z,56
2017-03-26T08:49:29.625Z,76
2017-03-26T08:50:39.607Z,76
2017-03-26T08:51:49.834Z,76
2017-03-26T08:53:00.116Z,76
2017-03-26T08:54:10.416Z,76
2017-03-26T08:55:20.383Z,76
2017-03-26T08:56:30.648Z,76
2017-03-26T08:57:40.933Z,76
2017-03-26T08:58:51.209Z,76
2017-03-26T09:00:00.862Z,72
2017-03-26T09:01:11.161Z,76
2017-03-26T09:02:20.497Z,76
2017-03-26T09:03:31.062Z,76
2017-03-26T09:04:41.026Z,76
2017-03-26T09:05:50.999Z,80
2017-03-26T09:07:00.980Z,80
2017-03-26T09:08:11.251Z,76
2017-03-26T09:09:21.478Z,76
2017-03-26T09:10:31.449Z,80
2017-03-26T09:11:41.403Z,80
2017-03-26T09:12:51.052Z,80
2017-03-26T09:14:00.715Z,80
2017-03-26T09:15:11.000Z,80
2017-03-26T09:16:20.977Z,80
2017-03-26T09:17:30.943Z,80
2017-03-26T09:18:40.911Z,80
2017-03-26T09:19:50.904Z,76
2017-03-26T09:21:01.118Z,76
2017-03-26T09:22:11.085Z,80
2017-03-26T09:23:21.055Z,80
2017-03-26T09:24:31.334Z,80
2017-03-26T09:25:41.298Z,80
2017-03-26T09:26:51.512Z,80
2017-03-26T09:28:01.811Z,84
2017-03-26T09:29:11.472Z,84
2017-03-26T09:30:21.751Z,80
2017-03-26T09:31:31.717Z,80
2017-03-26T09:32:42.296Z,80
2017-03-26T09:33:52.580Z,80
2017-03-26T09:35:02.864Z,84
2017-03-26T09:36:12.841Z,84
2017-03-26T09:37:22.816Z,84
2017-03-26T09:38:33.041Z,84
2017-03-26T09:39:43.015Z,88
2017-03-26T09:40:52.971Z,84
2017-03-26T09:42:03.251Z,84
2017-03-26T09:43:12.914Z,84
2017-03-26T09:44:23.178Z,84
2017-03-26T09:45:33.469Z,88
2017-03-26T09:46:43.434Z,84
2017-03-26T09:47:53.727Z,84
2017-03-26T09:49:03.701Z,84
2017-03-26T09:50:14.246Z,80
2017-03-26T09:51:24.531Z,76
2017-03-26T09:52:34.808Z,76
2017-03-26T09:53:44.780Z,80
2017-03-26T09:54:54.755Z,72
2017-03-26T09:56:04.726Z,68
2017-03-26T09:57:14.690Z,68
2017-03-26T09:58:24.661Z,80
2017-03-26T09:59:34.925Z,84
2017-03-26T10:00:44.893Z,84
2017-03-26T10:01:55.428Z,84
2017-03-26T10:03:05.403Z,84
2017-03-26T10:04:15.370Z,84
2017-03-26T10:05:25.671Z,80
2017-03-26T10:06:35.337Z,84
2017-03-26T10:07:45.866Z,84
2017-03-26T10:08:56.172Z,80
2017-03-26T10:10:06.453Z,80
2017-03-26T10:11:16.412Z,80
2017-03-26T10:12:26.699Z,84
2017-03-26T10:13:36.607Z,80
2017-03-26T10:14:46.631Z,80
2017-03-26T10:15:56.647Z,84
2017-03-26T10:17:06.927Z,80
2017-03-26T10:18:16.608Z,80
2017-03-26T10:19:27.140Z,80
2017-03-26T10:20:37.105Z,84
2017-03-26T10:21:47.073Z,84
2017-03-26T10:22:56.734Z,84
2017-03-26T10:24:07.026Z,84
2017-03-26T10:25:17.254Z,80
2017-03-26T10:26:27.228Z,80
2017-03-26T10:27:37.201Z,80
2017-03-26T10:28:47.511Z,80
2017-03-26T10:29:57.791Z,80
2017-03-26T10:31:08.323Z,84
2017-03-26T10:32:18.607Z,84
2017-03-26T10:33:28.269Z,84
2017-03-26T10:34:37.938Z,84
2017-03-26T10:35:47.904Z,80
2017-03-26T10:36:58.169Z,80
2017-03-26T10:38:07.834Z,80
2017-03-26T10:39:17.805Z,84
2017-03-26T10:40:27.783Z,80
2017-03-26T10:41:37.126Z,84
2017-03-26T10:42:47.662Z,84
2017-03-26T10:43:57.632Z,80
2017-03-26T10:45:07.911Z,80
2017-03-26T10:46:17.879Z,80
2017-03-26T10:47:27.846Z,80
2017-03-26T10:48:38.120Z,80
2017-03-26T10:49:48.096Z,80
2017-03-26T10:50:58.066Z,80
2017-03-26T10:52:08.373Z,80
2017-03-26T10:53:18.658Z,76
2017-03-26T10:54:28.927Z,80
2017-03-26T10:55:38.580Z,80
2017-03-26T10:56:48.856Z,80
2017-03-26T10:57:59.175Z,76
2017-03-26T10:59:09.162Z,76
2017-03-26T11:00:19.700Z,76
2017-03-26T11:01:29.982Z,76
2017-03-26T11:02:39.962Z,76
2017-03-26T11:03:49.925Z,80
2017-03-26T11:05:00.208Z,76
2017-03-26T11:06:10.772Z,76
2017-03-26T11:07:21.054Z,76
2017-03-26T11:08:31.350Z,80
2017-03-26T11:09:41.319Z,80
2017-03-26T11:10:51.003Z,76
2017-03-26T11:12:00.901Z,76
2017-03-26T11:13:10.866Z,76
2017-03-26T11:14:21.147Z,76
2017-03-26T11:15:30.793Z,76
2017-03-26T11:16:41.076Z,72
2017-03-26T11:17:51.612Z,72
2017-03-26T11:19:01.892Z,72
2017-03-26T11:20:12.209Z,76
2017-03-26T11:21:21.876Z,76
2017-03-26T11:22:31.837Z,76
2017-03-26T11:23:42.055Z,72
2017-03-26T11:24:52.349Z,72
2017-03-26T11:26:02.325Z,76
2017-03-26T11:27:12.348Z,72
2017-03-26T11:28:22.309Z,72
2017-03-26T11:29:32.525Z,76
2017-03-26T11:30:42.496Z,72
2017-03-26T11:31:52.149Z,72
2017-03-26T11:33:01.808Z,76
2017-03-26T11:34:11.494Z,72
2017-03-26T11:35:22.042Z,72
2017-03-26T11:36:32.003Z,72
2017-03-26T11:37:42.287Z,72
2017-03-26T11:38:52.260Z,68
2017-03-26T11:40:02.245Z,72
2017-03-26T11:41:12.781Z,68
2017-03-26T11:42:22.435Z,72
2017-03-26T11:43:32.728Z,72
2017-03-26T11:44:42.379Z,72
2017-03-26T11:45:52.661Z,72
2017-03-26T11:47:03.195Z,72
2017-03-26T11:48:13.165Z,72
2017-03-26T11:49:23.473Z,68
2017-03-26T11:50:33.435Z,72
2017-03-26T11:51:43.726Z,72
2017-03-26T11:52:54.258Z,72
2017-03-26T11:54:04.541Z,72
2017-03-26T11:55:14.824Z,72
2017-03-26T11:56:25.103Z,72
2017-03-26T11:57:35.377Z,72
2017-03-26T11:58:45.928Z,72
2017-03-26T11:59:56.223Z,72
2017-03-26T12:01:06.196Z,72
2017-03-26T12:02:16.474Z,68
2017-03-26T12:03:26.451Z,64
2017-03-26T12:04:36.986Z,60
2017-03-26T12:05:46.944Z,52
2017-03-26T12:06:57.218Z,64
2017-03-26T12:08:07.493Z,60
2017-03-26T12:09:17.475Z,60
2017-03-26T12:10:27.390Z,68
2017-03-26T12:11:37.054Z,72
2017-03-26T12:12:46.712Z,72
2017-03-26T12:13:56.706Z,72
2017-03-26T12:15:06.692Z,72
2017-03-26T12:16:17.221Z,72
2017-03-26T12:17:26.915Z,76
2017-03-26T12:18:36.889Z,72
2017-03-26T12:19:47.173Z,76
2017-03-26T12:20:57.456Z,76
2017-03-26T12:22:07.665Z,76
2017-03-26T12:23:17.949Z,72
2017-03-26T12:24:28.253Z,68
2017-03-26T12:25:38.225Z,68
2017-03-26T12:26:48.195Z,64
2017-03-26T12:27:57.786Z,60
2017-03-26T12:29:08.062Z,64
2017-03-26T12:30:18.356Z,56
2017-03-26T12:31:28.633Z,48
2017-03-26T12:32:38.940Z,56
2017-03-26T12:33:48.915Z,64
2017-03-26T12:34:58.897Z,60
2017-03-26T12:36:09.208Z,64
2017-03-26T12:37:19.503Z,64
2017-03-26T12:38:29.789Z,68
2017-03-26T12:39:40.041Z,64
2017-03-26T12:40:50.015Z,64
2017-03-26T12:41:59.995Z,60
2017-03-26T12:43:10.292Z,48
2017-03-26T12:44:20.587Z,48
2017-03-26T12:45:30.859Z,56
2017-03-26T12:46:41.158Z,60
2017-03-26T12:47:51.446Z,56
2017-03-26T12:49:01.736Z,64
2017-03-26T12:50:12.023Z,60
2017-03-26T12:51:21.983Z,60
2017-03-26T12:52:31.639Z,60
2017-03-26T12:53:41.919Z,56
2017-03-26T12:54:51.885Z,60
2017-03-26T12:56:02.156Z,60
2017-03-26T12:57:12.692Z,64
2017-03-26T12:58:22.651Z,64
2017-03-26T12:59:32.928Z,60
2017-03-26T13:00:43.216Z,60
2017-03-26T13:01:53.174Z,60
2017-03-26T13:03:03.749Z,60
2017-03-26T13:04:14.025Z,60
2017-03-26T13:05:24.354Z,56
2017-03-26T13:06:34.661Z,56
2017-03-26T13:07:44.337Z,60
2017-03-26T13:08:54.611Z,60
2017-03-26T13:10:04.585Z,60
2017-03-26T13:11:14.873Z,60
2017-03-26T13:12:24.840Z,60
2017-03-26T13:13:35.134Z,60
2017-03-26T13:14:45.052Z,60
2017-03-26T13:15:54.753Z,56
2017-03-26T13:17:04.745Z,56
2017-03-26T13:18:14.085Z,56
2017-03-26T13:19:24.064Z,56
2017-03-26T13:20:34.643Z,56
2017-03-26T13:21:44.305Z,56
2017-03-26T13:22:54.651Z,56
2017-03-26T13:24:04.651Z,56
2017-03-26T13:25:14.616Z,60
2017-03-26T13:26:25.191Z,56
2017-03-26T13:27:35.468Z,56
2017-03-26T13:28:45.744Z,52
2017-03-26T13:29:56.019Z,56
2017-03-26T13:31:05.989Z,52
2017-03-26T13:32:16.250Z,56
2017-03-26T13:33:26.229Z,52
2017-03-26T13:34:36.515Z,56
2017-03-26T13:35:46.796Z,52
2017-03-26T13:36:57.080Z,48
2017-03-26T13:38:07.104Z,48
2017-03-26T13:39:17.085Z,52
2017-03-26T13:40:27.062Z,52
2017-03-26T13:41:37.346Z,52
2017-03-26T13:42:47.317Z,52
2017-03-26T13:43:57.846Z,48
2017-03-26T13:45:07.826Z,48
2017-03-26T13:46:17.808Z,48
2017-03-26T13:47:28.293Z,48
2017-03-26T13:48:38.317Z,52
2017-03-26T13:49:48.869Z,48
2017-03-26T13:50:58.541Z,48
2017-03-26T13:52:08.837Z,48
2017-03-26T13:53:19.131Z,48
2017-03-26T13:54:29.412Z,48
2017-03-26T13:55:39.939Z,52
2017-03-26T13:56:49.917Z,48
2017-03-26T13:58:00.203Z,48
2017-03-26T13:59:10.487Z,44
2017-03-26T14:00:20.774Z,48
2017-03-26T14:01:31.304Z,44
2017-03-26T14:02:41.317Z,44
2017-03-26T14:03:51.020Z,44
2017-03-26T14:05:01.002Z,44
2017-03-26T14:06:10.966Z,40
2017-03-26T14:07:21.233Z,44
2017-03-26T14:08:31.216Z,44
2017-03-26T14:09:53.948Z,44
2017-03-26T14:11:03.976Z,44
2017-03-26T14:12:14.566Z,44
2017-03-26T14:13:24.841Z,44
2017-03-26T14:14:34.535Z,48
2017-03-26T14:15:44.829Z,44
2017-03-26T14:16:55.105Z,44
2017-03-26T14:18:05.384Z,44
2017-03-26T14:19:15.665Z,44
2017-03-26T14:20:25.951Z,44
2017-03-26T14:21:36.223Z,44
2017-03-26T14:22:45.880Z,44
2017-03-26T14:23:56.422Z,44
2017-03-26T14:25:06.695Z,44
2017-03-26T14:26:16.666Z,44
2017-03-26T14:27:26.941Z,44
2017-03-26T14:28:36.305Z,44
2017-03-26T14:29:46.555Z,44
2017-03-26T14:30:56.563Z,44
2017-03-26T14:32:06.865Z,40
2017-03-26T14:33:16.522Z,40
2017-03-26T14:34:26.808Z,40
2017-03-26T14:35:37.069Z,40
2017-03-26T14:36:47.044Z,40
2017-03-26T14:37:57.012Z,40
2017-03-26T14:39:06.683Z,40
2017-03-26T14:40:16.361Z,40
2017-03-26T14:41:26.264Z,40
2017-03-26T14:42:36.534Z,40
2017-03-26T14:43:46.819Z,40
2017-03-26T14:44:57.113Z,40
2017-03-26T14:46:07.403Z,36
2017-03-26T14:47:17.355Z,36
2017-03-26T14:48:27.032Z,36
2017-03-26T14:49:37.309Z,36
2017-03-26T14:50:47.600Z,36
2017-03-26T14:51:57.887Z,36
2017-03-26T14:53:08.416Z,36
2017-03-26T14:54:18.403Z,32
2017-03-26T14:55:28.381Z,36
2017-03-26T14:56:38.055Z,32
2017-03-26T14:57:48.349Z,36
2017-03-26T14:58:58.920Z,36
2017-03-26T15:00:09.249Z,32
2017-03-26T15:01:19.568Z,36
2017-03-26T15:02:29.542Z,36
2017-03-26T15:03:39.528Z,32
2017-03-26T15:04:49.762Z,32
2017-03-26T15:06:00.059Z,36
2017-03-26T15:07:10.039Z,36
2017-03-26T15:08:20.018Z,32
2017-03-26T15:09:29.989Z,32
2017-03-26T15:10:40.219Z,32
2017-03-26T15:11:50.497Z,32
2017-03-26T15:13:00.776Z,32
2017-03-26T15:14:11.051Z,32
2017-03-26T15:15:21.371Z,32
2017-03-26T15:16:31.962Z,32
2017-03-26T15:17:42.288Z,32
2017-03-26T15:18:52.286Z,32
2017-03-26T15:20:02.585Z,32
2017-03-26T15:21:12.891Z,32
2017-03-26T15:22:22.800Z,32
2017-03-26T15:23:33.108Z,32
2017-03-26T15:24:43.407Z,28
2017-03-26T15:25:53.387Z,32
2017-03-26T15:27:03.697Z,28
2017-03-26T15:28:13.610Z,28
2017-03-26T15:29:23.892Z,32
2017-03-26T15:30:34.176Z,32
2017-03-26T15:31:44.508Z,28
2017-03-26T15:32:54.488Z,28
2017-03-26T15:34:04.728Z,28
2017-03-26T15:35:15.045Z,32
2017-03-26T15:36:25.342Z,28
2017-03-26T15:37:35.013Z,28
2017-03-26T15:38:45.302Z,28
2017-03-26T15:40:06.172Z,28
2017-03-26T15:41:16.144Z,24
2017-03-26T15:42:26.438Z,28
2017-03-26T15:43:36.103Z,28
2017-03-26T15:44:45.773Z,28
2017-03-26T15:45:56.319Z,24
2017-03-26T15:47:06.637Z,24
2017-03-26T15:48:16.931Z,24
2017-03-26T15:49:27.231Z,24
2017-03-26T15:50:37.195Z,28
2017-03-26T15:51:47.475Z,28
2017-03-26T15:52:57.466Z,24
2017-03-26T15:54:07.774Z,24
2017-03-26T15:55:18.059Z,24
2017-03-26T15:56:27.721Z,24
2017-03-26T15:57:38.286Z,24
2017-03-26T15:58:48.263Z,24
2017-03-26T15:59:57.941Z,24
2017-03-26T16:01:07.625Z,24
2017-03-26T16:02:17.607Z,24
2017-03-26T16:03:28.198Z,24
2017-03-26T16:04:38.216Z,24
2017-03-26T16:05:48.508Z,20
2017-03-26T16:06:58.509Z,20
2017-03-26T16:08:08.496Z,24
2017-03-26T16:09:18.789Z,24
2017-03-26T16:10:28.784Z,24
2017-03-26T16:11:38.450Z,20
2017-03-26T16:12:48.759Z,20
2017-03-26T16:13:58.735Z,20
2017-03-26T16:15:09.048Z,20
2017-03-26T16:16:19.351Z,20
2017-03-26T16:17:29.036Z,20
2017-03-26T16:18:39.325Z,20
2017-03-26T16:19:49.624Z,20
2017-03-26T16:21:00.241Z,20
2017-03-26T16:22:10.225Z,20
2017-03-26T16:23:20.232Z,20
2017-03-26T16:24:30.224Z,16
2017-03-26T16:25:40.569Z,16
2017-03-26T16:26:52.007Z,20
2017-03-26T16:28:02.342Z,20
2017-03-26T16:29:12.338Z,20
2017-03-26T16:30:22.635Z,16
2017-03-26T16:31:32.927Z,16
2017-03-26T16:32:42.856Z,16
2017-03-26T16:33:53.181Z,16
2017-03-26T16:35:03.168Z,16
2017-03-26T16:36:13.180Z,16
2017-03-26T16:37:23.498Z,16
2017-03-26T16:38:34.118Z,16
2017-03-26T16:39:44.413Z,16
2017-03-26T16:40:54.409Z,12
2017-03-26T16:42:04.708Z,12
2017-03-26T16:43:15.036Z,12
2017-03-26T16:44:25.312Z,12
2017-03-26T16:45:35.630Z,16
2017-03-26T16:46:45.689Z,12
2017-03-26T16:47:55.995Z,12
2017-03-26T16:49:06.034Z,12
2017-03-26T16:50:16.628Z,8
2017-03-26T16:51:26.692Z,12